Hatsu Excel — VSXV3 — position and weather

sailwx.info

Track history (hours):
 
Tides and Currents Weather Stations Pressure Air Temp Water Temp Dewpoint Dewpoint Depression Visibility Wind Speed Wind Dir Waves Ship Positions

Hatsu Excel

Last reported at 2017-Feb-13 14:33 UTC. Time now 2017-Feb-28 10:06 UTC.
Position N 30°53' E 122°59'.
Warning: this ship's position is 14 days out of date.

Type: Ship (hazmat cat D). MMSI: 235479000.

Date/timePositionNaut miles runAvg speedWind from/ knotsBaromVisibWave heightAir tempDewpointWater temp
2017-Feb-13 14:33N 30°53' E 122°59'1514.8
2017-Feb-13 13:33N 30°53' E 122°41'8 3.6
2017-Feb-13 11:17N 30°46' E 122°36'0 0.0
2017-Feb-13 10:17N 30°46' E 122°36'0 0.0
2017-Feb-13 09:33N 30°46' E 122°36'0 0.0
2017-Feb-13 08:16N 30°46' E 122°36'0 0.1
2017-Feb-13 05:15N 30°46' E 122°36'0 0.1
2017-Feb-13 00:17N 30°46' E 122°36'0 0.0
2017-Feb-12 23:26N 30°46' E 122°36'0 0.0
2017-Feb-12 22:23N 30°46' E 122°36'0 0.0
2017-Feb-12 20:32N 30°46' E 122°36'1 0.3
2017-Feb-12 18:26N 30°47' E 122°36'0 0.1
2017-Feb-12 15:33N 30°46' E 122°36'28 5.7
2017-Feb-12 10:34N 30°36' E 122°05'0 0.0
2017-Feb-12 08:09N 30°36' E 122°05'0 0.0
2017-Feb-12 07:28N 30°36' E 122°05'0 0.0
2017-Feb-12 00:14N 30°36' E 122°05'15 5.5
2017-Feb-11 21:32N 30°33' E 122°22'  
2017-Feb-07 02:19N 22°50' E 120°03'1013.2
2017-Feb-07 01:34N 22°42' E 120°09'1111.3
2017-Feb-07 00:34N 22°33' E 120°17'2 2.3
2017-Feb-06 23:33N 22°33' E 120°19'0 0.0
2017-Feb-06 22:33N 22°33' E 120°19'0 0.0
2017-Feb-06 21:33N 22°33' E 120°19'0 0.0
2017-Feb-06 20:33N 22°33' E 120°19'0 0.0
2017-Feb-06 19:33N 22°33' E 120°19'0 0.0
2017-Feb-06 18:34N 22°33' E 120°19'0 0.0
2017-Feb-06 17:33N 22°33' E 120°19'0 0.0
2017-Feb-06 16:34N 22°33' E 120°19'0 0.0
2017-Feb-06 15:34N 22°33' E 120°19'0 0.0
2017-Feb-06 14:33N 22°33' E 120°19'0 0.0
2017-Feb-06 13:33N 22°33' E 120°19'0 0.0
2017-Feb-06 12:33N 22°33' E 120°19'0 0.1
2017-Feb-06 11:33N 22°33' E 120°19'6 5.8
2017-Feb-06 10:33N 22°32' E 120°13'1212.2
2017-Feb-06 09:33N 22°41' E 120°04'  
Track history (hours):
 
Tides and Currents Weather Stations Pressure Air Temp Water Temp Dewpoint Dewpoint Depression Visibility Wind Speed Wind Dir Waves Ship Positions

Hatsu Excel

Last reported at 2017-Feb-13 14:33 UTC. Time now 2017-Feb-28 10:06 UTC.
Position N 30°53' E 122°59'.
Warning: this ship's position is 14 days out of date.

Type: Ship (hazmat cat D). MMSI: 235479000.

Date/timePositionNaut miles runAvg speedWind from/ knotsBaromVisibWave heightAir tempDewpointWater temp
2017-Feb-13 14:33N 30°53' E 122°59'1514.8
2017-Feb-13 13:33N 30°53' E 122°41'8 3.6
2017-Feb-13 11:17N 30°46' E 122°36'0 0.0
2017-Feb-13 10:17N 30°46' E 122°36'0 0.0
2017-Feb-13 09:33N 30°46' E 122°36'0 0.0
2017-Feb-13 08:16N 30°46' E 122°36'0 0.1
2017-Feb-13 05:15N 30°46' E 122°36'0 0.1
2017-Feb-13 00:17N 30°46' E 122°36'0 0.0
2017-Feb-12 23:26N 30°46' E 122°36'0 0.0
2017-Feb-12 22:23N 30°46' E 122°36'0 0.0
2017-Feb-12 20:32N 30°46' E 122°36'1 0.3
2017-Feb-12 18:26N 30°47' E 122°36'0 0.1
2017-Feb-12 15:33N 30°46' E 122°36'28 5.7
2017-Feb-12 10:34N 30°36' E 122°05'0 0.0
2017-Feb-12 08:09N 30°36' E 122°05'0 0.0
2017-Feb-12 07:28N 30°36' E 122°05'0 0.0
2017-Feb-12 00:14N 30°36' E 122°05'15 5.5
2017-Feb-11 21:32N 30°33' E 122°22'  
2017-Feb-07 02:19N 22°50' E 120°03'1013.2
2017-Feb-07 01:34N 22°42' E 120°09'1111.3
2017-Feb-07 00:34N 22°33' E 120°17'2 2.3
2017-Feb-06 23:33N 22°33' E 120°19'0 0.0
2017-Feb-06 22:33N 22°33' E 120°19'0 0.0
2017-Feb-06 21:33N 22°33' E 120°19'0 0.0
2017-Feb-06 20:33N 22°33' E 120°19'0 0.0
2017-Feb-06 19:33N 22°33' E 120°19'0 0.0
2017-Feb-06 18:34N 22°33' E 120°19'0 0.0
2017-Feb-06 17:33N 22°33' E 120°19'0 0.0
2017-Feb-06 16:34N 22°33' E 120°19'0 0.0
2017-Feb-06 15:34N 22°33' E 120°19'0 0.0
2017-Feb-06 14:33N 22°33' E 120°19'0 0.0
2017-Feb-06 13:33N 22°33' E 120°19'0 0.0
2017-Feb-06 12:33N 22°33' E 120°19'0 0.1
2017-Feb-06 11:33N 22°33' E 120°19'6 5.8
2017-Feb-06 10:33N 22°32' E 120°13'1212.2
2017-Feb-06 09:33N 22°41' E 120°04'  

Dump ship's entire track history